sensor_id;sensor_type;location;lat;lon;timestamp;pressure;altitude;pressure_sealevel;temperature;humidity
60087;BME280;45960;53.630;55.972;2022-09-12T00:00:00;100694.53;;;11.43;61.14
60087;BME280;45960;53.630;55.972;2022-09-12T00:01:15;100669.09;;;11.22;61.33
60087;BME280;45960;53.630;55.972;2022-09-12T00:02:16;100695.66;;;11.39;61.46
60087;BME280;45960;53.630;55.972;2022-09-12T00:03:17;100687.09;;;11.34;61.32
60087;BME280;45960;53.630;55.972;2022-09-12T00:04:18;100655.16;;;11.17;61.11
60087;BME280;45960;53.630;55.972;2022-09-12T00:05:20;100706.56;;;11.36;61.25
60087;BME280;45960;53.630;55.972;2022-09-12T00:06:24;100696.81;;;11.35;61.45
60087;BME280;45960;53.630;55.972;2022-09-12T00:07:26;100696.81;;;11.35;61.71
60087;BME280;45960;53.630;55.972;2022-09-12T00:08:27;100695.09;;;11.34;61.83
60087;BME280;45960;53.630;55.972;2022-09-12T00:09:28;100680.56;;;11.24;61.55
60087;BME280;45960;53.630;55.972;2022-09-12T00:10:29;100702.16;;;11.35;61.40
60087;BME280;45960;53.630;55.972;2022-09-12T00:11:30;100700.47;;;11.34;61.35
60087;BME280;45960;53.630;55.972;2022-09-12T00:12:31;100700.47;;;11.34;61.54
60087;BME280;45960;53.630;55.972;2022-09-12T00:13:33;100705.81;;;11.34;61.73
60087;BME280;45960;53.630;55.972;2022-09-12T00:14:34;100703.22;;;11.33;61.87
60087;BME280;45960;53.630;55.972;2022-09-12T00:15:40;100703.59;;;11.27;61.88
60087;BME280;45960;53.630;55.972;2022-09-12T00:16:42;100642.16;;;10.96;61.87
60087;BME280;45960;53.630;55.972;2022-09-12T00:17:43;100698.06;;;11.30;61.98
60087;BME280;45960;53.630;55.972;2022-09-12T00:18:44;100695.47;;;11.28;61.74
60087;BME280;45960;53.630;55.972;2022-09-12T00:19:46;100699.75;;;11.31;61.67
60087;BME280;45960;53.630;55.972;2022-09-12T00:20:47;100686.00;;;11.23;61.92
60087;BME280;45960;53.630;55.972;2022-09-12T00:21:48;100696.22;;;11.30;61.94
60087;BME280;45960;53.630;55.972;2022-09-12T00:22:49;100698.91;;;11.30;61.94
60087;BME280;45960;53.630;55.972;2022-09-12T00:23:50;100661.91;;;11.08;61.62
60087;BME280;45960;53.630;55.972;2022-09-12T00:24:51;100691.00;;;11.29;61.98
60087;BME280;45960;53.630;55.972;2022-09-12T00:25:53;100655.91;;;11.05;62.12
60087;BME280;45960;53.630;55.972;2022-09-12T00:26:54;100700.91;;;11.27;62.47
60087;BME280;45960;53.630;55.972;2022-09-12T00:27:55;100699.09;;;11.27;62.42
60087;BME280;45960;53.630;55.972;2022-09-12T00:28:56;100697.28;;;11.28;62.10
60087;BME280;45960;53.630;55.972;2022-09-12T00:29:57;100700.81;;;11.28;62.19
60087;BME280;45960;53.630;55.972;2022-09-12T00:30:58;100694.53;;;11.29;62.27
60087;BME280;45960;53.630;55.972;2022-09-12T00:31:59;100693.75;;;11.27;62.35
60087;BME280;45960;53.630;55.972;2022-09-12T00:33:00;100692.91;;;11.27;62.28
60087;BME280;45960;53.630;55.972;2022-09-12T00:34:01;100692.03;;;11.26;62.18
60087;BME280;45960;53.630;55.972;2022-09-12T00:35:02;100686.88;;;11.23;62.14
60087;BME280;45960;53.630;55.972;2022-09-12T00:36:06;100693.94;;;11.24;62.26
60087;BME280;45960;53.630;55.972;2022-09-12T00:37:08;100701.00;;;11.25;62.23
60087;BME280;45960;53.630;55.972;2022-09-12T00:38:09;100683.63;;;11.18;62.43
60087;BME280;45960;53.630;55.972;2022-09-12T00:39:14;100695.84;;;11.22;62.58
60087;BME280;45960;53.630;55.972;2022-09-12T00:40:16;100693.16;;;11.22;62.58
60087;BME280;45960;53.630;55.972;2022-09-12T00:41:36;100697.66;;;11.22;62.46
60087;BME280;45960;53.630;55.972;2022-09-12T00:42:37;100697.28;;;11.13;62.56
60087;BME280;45960;53.630;55.972;2022-09-12T00:43:41;100688.00;;;11.05;62.24
60087;BME280;45960;53.630;55.972;2022-09-12T00:44:47;100692.97;;;11.11;62.08
60087;BME280;45960;53.630;55.972;2022-09-12T00:45:49;100704.25;;;11.16;62.22
60087;BME280;45960;53.630;55.972;2022-09-12T00:47:24;100698.03;;;11.15;62.21
60087;BME280;45960;53.630;55.972;2022-09-12T00:48:22;100696.00;;;11.05;62.57
60087;BME280;45960;53.630;55.972;2022-09-12T00:50:35;100689.69;;;11.06;62.74
60087;BME280;45960;53.630;55.972;2022-09-12T00:51:36;100694.72;;;11.12;62.80
60087;BME280;45960;53.630;55.972;2022-09-12T00:52:47;100700.22;;;11.09;62.95
60087;BME280;45960;53.630;55.972;2022-09-12T00:53:51;100698.50;;;11.08;62.76
60087;BME280;45960;53.630;55.972;2022-09-12T00:55:36;100702.50;;;11.01;62.46
60087;BME280;45960;53.630;55.972;2022-09-12T00:56:37;100711.47;;;11.00;63.03
60087;BME280;45960;53.630;55.972;2022-09-12T00:57:55;100700.97;;;10.96;62.76
60087;BME280;45960;53.630;55.972;2022-09-12T00:59:05;100695.63;;;10.96;63.08
60087;BME280;45960;53.630;55.972;2022-09-12T01:00:13;100706.84;;;10.73;63.46
60087;BME280;45960;53.630;55.972;2022-09-12T01:01:18;100698.25;;;10.82;63.31
60087;BME280;45960;53.630;55.972;2022-09-12T01:02:20;100701.41;;;10.89;63.23
60087;BME280;45960;53.630;55.972;2022-09-12T01:03:22;100706.50;;;10.93;63.24
60087;BME280;45960;53.630;55.972;2022-09-12T01:04:25;100704.59;;;10.95;63.04
60087;BME280;45960;53.630;55.972;2022-09-12T01:05:28;100688.06;;;10.89;63.05
60087;BME280;45960;53.630;55.972;2022-09-12T01:06:36;100709.94;;;10.95;62.83
60087;BME280;45960;53.630;55.972;2022-09-12T01:07:40;100693.22;;;10.92;63.03
60087;BME280;45960;53.630;55.972;2022-09-12T01:08:42;100679.94;;;10.90;63.00
60087;BME280;45960;53.630;55.972;2022-09-12T01:09:44;100704.22;;;11.02;62.73
60087;BME280;45960;53.630;55.972;2022-09-12T01:10:46;100703.25;;;11.03;62.84
60087;BME280;45960;53.630;55.972;2022-09-12T01:11:48;100697.84;;;11.04;62.87
60087;BME280;45960;53.630;55.972;2022-09-12T01:12:50;100703.06;;;11.06;62.77
60087;BME280;45960;53.630;55.972;2022-09-12T01:13:51;100706.53;;;11.08;62.60
60087;BME280;45960;53.630;55.972;2022-09-12T01:14:52;100694.88;;;11.09;62.53
60087;BME280;45960;53.630;55.972;2022-09-12T01:15:53;100693.16;;;11.08;62.53
60087;BME280;45960;53.630;55.972;2022-09-12T01:16:55;100700.06;;;11.12;62.46
60087;BME280;45960;53.630;55.972;2022-09-12T01:18:13;100702.34;;;11.04;62.23
60087;BME280;45960;53.630;55.972;2022-09-12T01:21:24;100703.81;;;10.93;62.66
60087;BME280;45960;53.630;55.972;2022-09-12T01:25:30;100711.50;;;10.84;62.78
60087;BME280;45960;53.630;55.972;2022-09-12T01:32:05;100703.41;;;10.85;62.61
60087;BME280;45960;53.630;55.972;2022-09-12T01:34:52;100714.84;;;10.73;63.07
60087;BME280;45960;53.630;55.972;2022-09-12T01:37:41;100704.69;;;10.64;63.36
60087;BME280;45960;53.630;55.972;2022-09-12T01:38:48;100668.56;;;10.42;63.54
60087;BME280;45960;53.630;55.972;2022-09-12T01:41:53;100717.28;;;10.62;63.03
60087;BME280;45960;53.630;55.972;2022-09-12T01:43:25;100713.47;;;10.66;63.13
60087;BME280;45960;53.630;55.972;2022-09-12T01:44:55;100711.84;;;10.63;63.17
60087;BME280;45960;53.630;55.972;2022-09-12T01:46:14;100720.72;;;10.64;63.38
60087;BME280;45960;53.630;55.972;2022-09-12T01:48:42;100720.53;;;10.67;63.09
60087;BME280;45960;53.630;55.972;2022-09-12T01:49:54;100723.97;;;10.69;63.30
60087;BME280;45960;53.630;55.972;2022-09-12T01:52:27;100716.06;;;10.67;63.33
60087;BME280;45960;53.630;55.972;2022-09-12T01:53:35;100723.78;;;10.72;63.20
60087;BME280;45960;53.630;55.972;2022-09-12T01:54:56;100717.09;;;10.65;62.89
60087;BME280;45960;53.630;55.972;2022-09-12T01:56:16;100731.06;;;10.70;63.16
60087;BME280;45960;53.630;55.972;2022-09-12T01:57:30;100726.47;;;10.72;63.04
60087;BME280;45960;53.630;55.972;2022-09-12T01:58:40;100722.75;;;10.74;62.86
60087;BME280;45960;53.630;55.972;2022-09-12T01:59:46;100728.97;;;10.75;62.87
60087;BME280;45960;53.630;55.972;2022-09-12T02:01:06;100730.00;;;10.72;62.74
60087;BME280;45960;53.630;55.972;2022-09-12T02:02:13;100728.97;;;10.75;62.91
60087;BME280;45960;53.630;55.972;2022-09-12T02:03:29;100735.88;;;10.79;62.88
60087;BME280;45960;53.630;55.972;2022-09-12T02:04:38;100728.97;;;10.75;62.71
60087;BME280;45960;53.630;55.972;2022-09-12T02:05:47;100731.63;;;10.75;62.70
60087;BME280;45960;53.630;55.972;2022-09-12T02:07:01;100730.78;;;10.74;62.53
60087;BME280;45960;53.630;55.972;2022-09-12T02:08:10;100727.25;;;10.74;62.55
60087;BME280;45960;53.630;55.972;2022-09-12T02:09:41;100732.09;;;10.67;62.48
60087;BME280;45960;53.630;55.972;2022-09-12T02:10:58;100732.09;;;10.67;62.54
60087;BME280;45960;53.630;55.972;2022-09-12T02:12:00;100727.44;;;10.71;62.58
60087;BME280;45960;53.630;55.972;2022-09-12T02:13:12;100732.59;;;10.74;62.49
60087;BME280;45960;53.630;55.972;2022-09-12T02:14:22;100737.94;;;10.74;62.81
60087;BME280;45960;53.630;55.972;2022-09-12T02:15:31;100726.28;;;10.75;62.75
60087;BME280;45960;53.630;55.972;2022-09-12T02:16:36;100739.19;;;10.52;63.15
60087;BME280;45960;53.630;55.972;2022-09-12T02:17:44;100731.59;;;10.61;63.15
60087;BME280;45960;53.630;55.972;2022-09-12T02:19:15;100734.44;;;10.58;63.15
60087;BME280;45960;53.630;55.972;2022-09-12T02:20:24;100722.53;;;10.63;63.35
60087;BME280;45960;53.630;55.972;2022-09-12T02:21:27;100721.31;;;10.69;63.31
60087;BME280;45960;53.630;55.972;2022-09-12T02:22:32;100729.16;;;10.72;63.01
60087;BME280;45960;53.630;55.972;2022-09-12T02:23:38;100726.41;;;10.73;62.92
60087;BME280;45960;53.630;55.972;2022-09-12T02:24:42;100728.03;;;10.76;63.06
60087;BME280;45960;53.630;55.972;2022-09-12T02:25:47;100733.19;;;10.79;62.87
60087;BME280;45960;53.630;55.972;2022-09-12T02:27:00;100735.75;;;10.81;62.80
60087;BME280;45960;53.630;55.972;2022-09-12T02:28:08;100699.34;;;10.64;62.70
60087;BME280;45960;53.630;55.972;2022-09-12T02:29:10;100727.66;;;10.82;62.64
60087;BME280;45960;53.630;55.972;2022-09-12T02:30:12;100731.84;;;10.86;62.47
60087;BME280;45960;53.630;55.972;2022-09-12T02:31:30;100739.22;;;10.83;62.66
60087;BME280;45960;53.630;55.972;2022-09-12T02:32:42;100732.22;;;10.80;62.72
60087;BME280;45960;53.630;55.972;2022-09-12T02:34:00;100731.19;;;10.83;62.80
60087;BME280;45960;53.630;55.972;2022-09-12T02:35:32;100733.28;;;10.78;62.86
60087;BME280;45960;53.630;55.972;2022-09-12T02:38:24;100741.75;;;10.70;63.30
60087;BME280;45960;53.630;55.972;2022-09-12T02:39:28;100742.91;;;10.80;63.43
60087;BME280;45960;53.630;55.972;2022-09-12T02:40:30;100737.38;;;10.83;63.10
60087;BME280;45960;53.630;55.972;2022-09-12T02:41:31;100734.66;;;10.85;63.11
60087;BME280;45960;53.630;55.972;2022-09-12T02:42:33;100744.28;;;10.87;63.14
60087;BME280;45960;53.630;55.972;2022-09-12T02:43:34;100749.47;;;10.90;63.04
60087;BME280;45960;53.630;55.972;2022-09-12T02:44:37;100743.06;;;10.93;62.99
60087;BME280;45960;53.630;55.972;2022-09-12T02:45:38;100749.09;;;10.96;63.16
60087;BME280;45960;53.630;55.972;2022-09-12T02:46:43;100725.94;;;10.81;63.15
60087;BME280;45960;53.630;55.972;2022-09-12T02:47:50;100752.72;;;10.95;63.32
60087;BME280;45960;53.630;55.972;2022-09-12T02:48:53;100748.03;;;10.99;63.34
60087;BME280;45960;53.630;55.972;2022-09-12T02:49:55;100755.09;;;11.00;63.31
60087;BME280;45960;53.630;55.972;2022-09-12T02:50:58;100752.34;;;11.02;63.31
60087;BME280;45960;53.630;55.972;2022-09-12T02:52:01;100736.69;;;10.95;63.31
60087;BME280;45960;53.630;55.972;2022-09-12T02:53:06;100751.50;;;11.01;63.37
60087;BME280;45960;53.630;55.972;2022-09-12T02:54:08;100728.06;;;10.90;63.40
60087;BME280;45960;53.630;55.972;2022-09-12T02:55:10;100754.91;;;11.03;63.56
60087;BME280;45960;53.630;55.972;2022-09-12T02:56:18;100756.75;;;11.03;63.44
60087;BME280;45960;53.630;55.972;2022-09-12T02:57:21;100745.44;;;10.97;63.82
60087;BME280;45960;53.630;55.972;2022-09-12T02:58:26;100761.16;;;11.04;63.99
60087;BME280;45960;53.630;55.972;2022-09-12T02:59:29;100755.63;;;11.07;64.06
60087;BME280;45960;53.630;55.972;2022-09-12T03:00:36;100757.53;;;11.05;64.14
60087;BME280;45960;53.630;55.972;2022-09-12T03:03:25;100757.19;;;10.95;64.51
60087;BME280;45960;53.630;55.972;2022-09-12T03:05:19;100755.41;;;10.95;64.76
60087;BME280;45960;53.630;55.972;2022-09-12T03:13:29;100753.06;;;10.89;65.72
60087;BME280;45960;53.630;55.972;2022-09-12T03:16:16;100762.91;;;10.89;65.75
60087;BME280;45960;53.630;55.972;2022-09-12T03:21:45;100764.94;;;11.00;65.52
60087;BME280;45960;53.630;55.972;2022-09-12T03:22:58;100752.72;;;10.95;65.17
60087;BME280;45960;53.630;55.972;2022-09-12T03:24:11;100761.31;;;11.01;64.97
60087;BME280;45960;53.630;55.972;2022-09-12T03:28:05;100760.97;;;11.07;64.94
60087;BME280;45960;53.630;55.972;2022-09-12T03:29:08;100771.22;;;10.84;65.32
60087;BME280;45960;53.630;55.972;2022-09-12T03:30:11;100766.84;;;10.97;65.56
60087;BME280;45960;53.630;55.972;2022-09-12T03:31:15;100768.22;;;11.05;65.57
60087;BME280;45960;53.630;55.972;2022-09-12T03:32:16;100764.22;;;11.12;65.23
60087;BME280;45960;53.630;55.972;2022-09-12T03:33:19;100773.78;;;11.16;65.35
60087;BME280;45960;53.630;55.972;2022-09-12T03:34:22;100763.75;;;11.19;65.14
60087;BME280;45960;53.630;55.972;2022-09-12T03:35:24;100765.19;;;11.25;65.08
60087;BME280;45960;53.630;55.972;2022-09-12T03:36:28;100764.25;;;11.26;65.07
60087;BME280;45960;53.630;55.972;2022-09-12T03:37:29;100771.13;;;11.30;64.88
60087;BME280;45960;53.630;55.972;2022-09-12T03:38:30;100768.28;;;11.33;65.02
60087;BME280;45960;53.630;55.972;2022-09-12T03:39:32;100747.91;;;11.31;65.00
60087;BME280;45960;53.630;55.972;2022-09-12T03:40:37;100759.00;;;11.39;64.99
60087;BME280;45960;53.630;55.972;2022-09-12T03:41:38;100761.50;;;11.42;64.89
60087;BME280;45960;53.630;55.972;2022-09-12T03:42:40;100769.44;;;11.43;64.92
60087;BME280;45960;53.630;55.972;2022-09-12T03:43:41;100763.97;;;11.45;64.80
60087;BME280;45960;53.630;55.972;2022-09-12T03:44:42;100766.47;;;11.48;64.70
60087;BME280;45960;53.630;55.972;2022-09-12T03:45:43;100769.91;;;11.50;64.60
60087;BME280;45960;53.630;55.972;2022-09-12T03:46:44;100764.38;;;11.53;64.43
60087;BME280;45960;53.630;55.972;2022-09-12T03:47:45;100765.06;;;11.57;64.37
60087;BME280;45960;53.630;55.972;2022-09-12T03:48:46;100772.13;;;11.58;64.14
60087;BME280;45960;53.630;55.972;2022-09-12T03:49:47;100763.13;;;11.59;64.25
60087;BME280;45960;53.630;55.972;2022-09-12T03:50:48;100722.03;;;11.31;64.19
60087;BME280;45960;53.630;55.972;2022-09-12T03:51:49;100770.97;;;11.62;64.15
60087;BME280;45960;53.630;55.972;2022-09-12T03:52:50;100776.25;;;11.63;63.88
60087;BME280;45960;53.630;55.972;2022-09-12T03:53:51;100748.03;;;11.43;63.73
60087;BME280;45960;53.630;55.972;2022-09-12T03:54:52;100774.53;;;11.62;63.51
60087;BME280;45960;53.630;55.972;2022-09-12T03:55:53;100777.09;;;11.64;63.43
60087;BME280;45960;53.630;55.972;2022-09-12T03:56:54;100775.38;;;11.63;63.51
60087;BME280;45960;53.630;55.972;2022-09-12T03:57:55;100775.38;;;11.63;63.59
60087;BME280;45960;53.630;55.972;2022-09-12T03:58:56;100782.25;;;11.67;63.55
60087;BME280;45960;53.630;55.972;2022-09-12T03:59:57;100759.72;;;11.57;63.67
60087;BME280;45960;53.630;55.972;2022-09-12T04:00:58;100779.50;;;11.69;64.00
60087;BME280;45960;53.630;55.972;2022-09-12T04:01:59;100777.69;;;11.69;64.13
60087;BME280;45960;53.630;55.972;2022-09-12T04:03:00;100775.84;;;11.70;64.31
60087;BME280;45960;53.630;55.972;2022-09-12T04:04:01;100783.81;;;11.71;64.24
60087;BME280;45960;53.630;55.972;2022-09-12T04:05:03;100771.16;;;11.73;64.27
60087;BME280;45960;53.630;55.972;2022-09-12T04:06:05;100778.25;;;11.74;64.25
60087;BME280;45960;53.630;55.972;2022-09-12T04:07:06;100739.44;;;11.53;64.29
60087;BME280;45960;53.630;55.972;2022-09-12T04:08:07;100778.91;;;11.78;64.61
60087;BME280;45960;53.630;55.972;2022-09-12T04:09:08;100778.72;;;11.81;64.48
60087;BME280;45960;53.630;55.972;2022-09-12T04:10:09;100783.88;;;11.84;64.34
60087;BME280;45960;53.630;55.972;2022-09-12T04:11:13;100774.22;;;11.81;63.87
60087;BME280;45960;53.630;55.972;2022-09-12T04:12:14;100776.72;;;11.84;64.21
60087;BME280;45960;53.630;55.972;2022-09-12T04:13:15;100777.31;;;11.90;64.11
60087;BME280;45960;53.630;55.972;2022-09-12T04:14:16;100768.63;;;11.86;64.34
60087;BME280;45960;53.630;55.972;2022-09-12T04:15:17;100747.06;;;11.73;64.14
60087;BME280;45960;53.630;55.972;2022-09-12T04:16:19;100783.38;;;11.93;64.21
60087;BME280;45960;53.630;55.972;2022-09-12T04:17:20;100787.63;;;11.96;64.22
60087;BME280;45960;53.630;55.972;2022-09-12T04:18:21;100785.72;;;11.98;64.39
60087;BME280;45960;53.630;55.972;2022-09-12T04:19:22;100771.78;;;11.93;64.21
60087;BME280;45960;53.630;55.972;2022-09-12T04:20:23;100770.84;;;11.94;64.46
60087;BME280;45960;53.630;55.972;2022-09-12T04:21:25;100787.75;;;12.08;64.41
60087;BME280;45960;53.630;55.972;2022-09-12T04:22:26;100782.31;;;12.10;64.38
60087;BME280;45960;53.630;55.972;2022-09-12T04:23:27;100778.53;;;12.13;64.11
60087;BME280;45960;53.630;55.972;2022-09-12T04:24:28;100782.75;;;12.17;64.15
60087;BME280;45960;53.630;55.972;2022-09-12T04:25:29;100780.72;;;12.20;64.09
60087;BME280;45960;53.630;55.972;2022-09-12T04:26:31;100782.28;;;12.24;63.97
60087;BME280;45960;53.630;55.972;2022-09-12T04:27:32;100786.56;;;12.27;64.13
60087;BME280;45960;53.630;55.972;2022-09-12T04:28:35;100789.13;;;12.28;64.25
60087;BME280;45960;53.630;55.972;2022-09-12T04:29:36;100790.69;;;12.32;64.25
60087;BME280;45960;53.630;55.972;2022-09-12T04:30:37;100785.13;;;12.36;64.02
60087;BME280;45960;53.630;55.972;2022-09-12T04:31:38;100783.19;;;12.38;64.12
60087;BME280;45960;53.630;55.972;2022-09-12T04:32:39;100792.00;;;12.40;63.75
60087;BME280;45960;53.630;55.972;2022-09-12T04:33:41;100788.38;;;12.41;63.48
60087;BME280;45960;53.630;55.972;2022-09-12T04:34:42;100780.41;;;12.39;63.36
60087;BME280;45960;53.630;55.972;2022-09-12T04:35:43;100787.97;;;12.47;63.04
60087;BME280;45960;53.630;55.972;2022-09-12T04:36:45;100788.81;;;12.47;63.37
60087;BME280;45960;53.630;55.972;2022-09-12T04:37:46;100791.38;;;12.49;63.01
60087;BME280;45960;53.630;55.972;2022-09-12T04:38:47;100800.19;;;12.51;63.07
60087;BME280;45960;53.630;55.972;2022-09-12T04:39:49;100791.22;;;12.52;63.07
60087;BME280;45960;53.630;55.972;2022-09-12T04:40:50;100790.88;;;12.57;62.93
60087;BME280;45960;53.630;55.972;2022-09-12T04:41:51;100792.50;;;12.59;63.05
60087;BME280;45960;53.630;55.972;2022-09-12T04:42:52;100792.31;;;12.62;63.46
60087;BME280;45960;53.630;55.972;2022-09-12T04:43:57;100796.72;;;12.63;63.64
60087;BME280;45960;53.630;55.972;2022-09-12T04:45:01;100791.03;;;12.68;63.60
60087;BME280;45960;53.630;55.972;2022-09-12T04:46:09;100789.34;;;12.67;63.60
60087;BME280;45960;53.630;55.972;2022-09-12T04:47:10;100795.16;;;12.73;63.90
60087;BME280;45960;53.630;55.972;2022-09-12T04:48:11;100793.03;;;12.79;63.78
60087;BME280;45960;53.630;55.972;2022-09-12T04:49:13;100794.56;;;12.83;63.49
60087;BME280;45960;53.630;55.972;2022-09-12T04:50:16;100797.03;;;12.86;63.35
60087;BME280;45960;53.630;55.972;2022-09-12T04:51:25;100799.50;;;12.89;63.53
60087;BME280;45960;53.630;55.972;2022-09-12T04:52:27;100797.38;;;12.94;63.51
60087;BME280;45960;53.630;55.972;2022-09-12T04:53:29;100805.00;;;13.00;63.22
60087;BME280;45960;53.630;55.972;2022-09-12T04:54:30;100796.63;;;13.05;62.74
60087;BME280;45960;53.630;55.972;2022-09-12T04:55:33;100796.34;;;13.09;63.12
60087;BME280;45960;53.630;55.972;2022-09-12T04:56:40;100798.81;;;13.12;62.90
60087;BME280;45960;53.630;55.972;2022-09-12T04:57:41;100795.69;;;13.18;62.99
60087;BME280;45960;53.630;55.972;2022-09-12T04:58:43;100798.84;;;13.25;63.01
60087;BME280;45960;53.630;55.972;2022-09-12T04:59:44;100798.53;;;13.30;62.58
60087;BME280;45960;53.630;55.972;2022-09-12T05:00:45;100794.72;;;13.34;62.34
60087;BME280;45960;53.630;55.972;2022-09-12T05:01:46;100766.94;;;13.20;62.35
60087;BME280;45960;53.630;55.972;2022-09-12T05:02:48;100786.44;;;13.37;62.51
60087;BME280;45960;53.630;55.972;2022-09-12T05:03:50;100798.38;;;13.46;62.59
60087;BME280;45960;53.630;55.972;2022-09-12T05:04:51;100810.50;;;13.51;62.47
60087;BME280;45960;53.630;55.972;2022-09-12T05:05:52;100807.59;;;13.54;62.39
60087;BME280;45960;53.630;55.972;2022-09-12T05:06:53;100802.03;;;13.57;62.39
60087;BME280;45960;53.630;55.972;2022-09-12T05:07:54;100804.47;;;13.60;62.40
60087;BME280;45960;53.630;55.972;2022-09-12T05:08:55;100798.03;;;13.63;62.51
60087;BME280;45960;53.630;55.972;2022-09-12T05:09:58;100807.72;;;13.65;62.06
60087;BME280;45960;53.630;55.972;2022-09-12T05:11:04;100778.19;;;13.53;62.01
60087;BME280;45960;53.630;55.972;2022-09-12T05:12:06;100802.03;;;13.70;62.15
60087;BME280;45960;53.630;55.972;2022-09-12T05:13:07;100805.34;;;13.74;61.99
60087;BME280;45960;53.630;55.972;2022-09-12T05:14:10;100805.34;;;13.74;61.64
60087;BME280;45960;53.630;55.972;2022-09-12T05:15:11;100806.13;;;13.76;61.57
60087;BME280;45960;53.630;55.972;2022-09-12T05:16:14;100806.13;;;13.76;61.60
60087;BME280;45960;53.630;55.972;2022-09-12T05:17:15;100812.13;;;13.79;61.78
60087;BME280;45960;53.630;55.972;2022-09-12T05:18:16;100803.97;;;13.81;61.89
60087;BME280;45960;53.630;55.972;2022-09-12T05:19:17;100811.06;;;13.82;61.91
60087;BME280;45960;53.630;55.972;2022-09-12T05:20:18;100803.00;;;13.82;61.92
60087;BME280;45960;53.630;55.972;2022-09-12T05:21:20;100778.94;;;13.68;61.93
60087;BME280;45960;53.630;55.972;2022-09-12T05:22:24;100809.13;;;13.84;62.17
60087;BME280;45960;53.630;55.972;2022-09-12T05:23:26;100814.50;;;13.84;61.89
60087;BME280;45960;53.630;55.972;2022-09-12T05:24:27;100810.84;;;13.85;61.93
60087;BME280;45960;53.630;55.972;2022-09-12T05:25:28;100814.91;;;13.91;61.98
60087;BME280;45960;53.630;55.972;2022-09-12T05:26:29;100805.03;;;13.91;61.71
60087;BME280;45960;53.630;55.972;2022-09-12T05:27:30;100805.03;;;13.91;61.59
60087;BME280;45960;53.630;55.972;2022-09-12T05:28:35;100809.44;;;13.92;61.26
60087;BME280;45960;53.630;55.972;2022-09-12T05:29:36;100813.63;;;13.96;61.26
60087;BME280;45960;53.630;55.972;2022-09-12T05:30:37;100813.41;;;13.99;61.37
60087;BME280;45960;53.630;55.972;2022-09-12T05:31:38;100802.88;;;13.96;61.28
60087;BME280;45960;53.630;55.972;2022-09-12T05:32:40;100810.41;;;14.04;61.39
60087;BME280;45960;53.630;55.972;2022-09-12T05:33:43;100812.44;;;14.00;61.27
60087;BME280;45960;53.630;55.972;2022-09-12T05:34:44;100815.13;;;14.00;61.34
60087;BME280;45960;53.630;55.972;2022-09-12T05:35:50;100803.09;;;13.93;61.41
60087;BME280;45960;53.630;55.972;2022-09-12T05:36:52;100806.19;;;14.00;61.51
60087;BME280;45960;53.630;55.972;2022-09-12T05:37:53;100812.97;;;14.05;61.55
60087;BME280;45960;53.630;55.972;2022-09-12T05:38:54;100794.81;;;13.96;61.22
60087;BME280;45960;53.630;55.972;2022-09-12T05:39:56;100812.53;;;14.12;61.29
60087;BME280;45960;53.630;55.972;2022-09-12T05:41:07;100773.22;;;13.85;60.97
60087;BME280;45960;53.630;55.972;2022-09-12T05:42:09;100814.47;;;14.09;61.33
60087;BME280;45960;53.630;55.972;2022-09-12T05:43:10;100809.84;;;14.12;61.33
60087;BME280;45960;53.630;55.972;2022-09-12T05:44:14;100815.00;;;14.15;61.36
60087;BME280;45960;53.630;55.972;2022-09-12T05:45:15;100810.13;;;14.20;61.19
60087;BME280;45960;53.630;55.972;2022-09-12T05:46:19;100812.72;;;14.21;61.08
60087;BME280;45960;53.630;55.972;2022-09-12T05:47:20;100810.44;;;14.28;61.08
60087;BME280;45960;53.630;55.972;2022-09-12T05:48:22;100811.19;;;14.30;61.13
60087;BME280;45960;53.630;55.972;2022-09-12T05:49:23;100812.50;;;14.37;61.05
60087;BME280;45960;53.630;55.972;2022-09-12T05:50:24;100812.25;;;14.40;60.63
60087;BME280;45960;53.630;55.972;2022-09-12T05:51:27;100807.75;;;14.41;60.50
60087;BME280;45960;53.630;55.972;2022-09-12T05:52:29;100813.75;;;14.44;60.88
60087;BME280;45960;53.630;55.972;2022-09-12T05:53:32;100811.81;;;14.46;60.60
60087;BME280;45960;53.630;55.972;2022-09-12T05:54:33;100805.56;;;14.46;61.12
60087;BME280;45960;53.630;55.972;2022-09-12T05:55:34;100811.38;;;14.52;60.82
60087;BME280;45960;53.630;55.972;2022-09-12T05:56:40;100822.13;;;14.52;60.49
60087;BME280;45960;53.630;55.972;2022-09-12T05:57:44;100814.84;;;14.54;60.55
60087;BME280;45960;53.630;55.972;2022-09-12T05:58:47;100814.59;;;14.58;60.75
60087;BME280;45960;53.630;55.972;2022-09-12T05:59:52;100805.69;;;14.57;60.67
60087;BME280;45960;53.630;55.972;2022-09-12T06:00:53;100806.44;;;14.59;60.30
60087;BME280;45960;53.630;55.972;2022-09-12T06:01:55;100813.28;;;14.63;60.40
60087;BME280;45960;53.630;55.972;2022-09-12T06:02:56;100814.16;;;14.64;60.30
60087;BME280;45960;53.630;55.972;2022-09-12T06:03:59;100816.84;;;14.64;60.13
60087;BME280;45960;53.630;55.972;2022-09-12T06:05:01;100821.25;;;14.65;59.94
60087;BME280;45960;53.630;55.972;2022-09-12T06:06:03;100812.22;;;14.66;60.00
60087;BME280;45960;53.630;55.972;2022-09-12T06:07:05;100819.06;;;14.70;60.17
60087;BME280;45960;53.630;55.972;2022-09-12T06:08:06;100816.28;;;14.71;60.00
60087;BME280;45960;53.630;55.972;2022-09-12T06:09:07;100822.28;;;14.75;59.89
60087;BME280;45960;53.630;55.972;2022-09-12T06:10:09;100821.31;;;14.76;59.69
60087;BME280;45960;53.630;55.972;2022-09-12T06:11:16;100820.34;;;14.77;59.79